Big Cove, Alabama
Current Conditions -  °F | °C
As of 3:58 PM on Thursday 27 Nov 2014 (Local Time) from KHUA Reporting Station
Overcast Overcast  
Wind Chill: 35°   Ceiling: 3900
Heat Index: 41°   Visibility: 10mi
Dew Point: 28°   Wind: 10mph
Humidity: 59%   Direction: 340°NNW
Pressure: 30.4"   Gusts: NA
Location:  34.611°N, 86.4644°W
Report Text: KHUA 272158Z AUTO 34009KT 10SM OVC039 05/M02 A3040 RMK AO2 SLP300 T00491025
Loading
Personal Weather Stations






























Interactive Weather Map New forecast layout! Learn more

10-Day Weather Forecast

Advertisements
Track Severe Weather on mobile